Terminal Aerodrome Forecast
Issued by NWS

Current Version | Previous Version | Text Only | Print | Product List | Glossary On
Versions: 1 2 3 4 5 6 7 8 9 10 11 12 13 14 15 16 17 18 19 20 21 22 23 24 25 26 27 28 29 30 31
000
FTUS42 KGSP 292324
TAFHKY
TAF
KHKY 292324Z 3000/3024 20006KT P6SM FEW080 SCT250
     FM301200 00000KT P6SM SCT250
     FM301600 24006KT P6SM SCT060
     FM301700 23008KT P6SM BKN060 PROB30 3018/3024 4SM TSRA
      BKN040CB=

USA.gov is the U.S. government's official web portal to all federal, state and local government web resources and services.